sensor_id;sensor_type;location;lat;lon;timestamp;pressure;altitude;pressure_sealevel;temperature;humidity
32789;BME280;19141;48.980;8.410;2023-03-26T04:22:33;99375.47;;;7.09;100.00
32789;BME280;19141;48.980;8.410;2023-03-26T04:25:03;99370.34;;;7.07;100.00
32789;BME280;19141;48.980;8.410;2023-03-26T04:27:42;99371.69;;;7.12;100.00
32789;BME280;19141;48.980;8.410;2023-03-26T04:30:17;99354.97;;;7.11;100.00
32789;BME280;19141;48.980;8.410;2023-03-26T04:32:48;99350.63;;;7.10;100.00
32789;BME280;19141;48.980;8.410;2023-03-26T04:35:15;99346.34;;;7.09;100.00
32789;BME280;19141;48.980;8.410;2023-03-26T04:37:45;99341.03;;;7.09;100.00
32789;BME280;19141;48.980;8.410;2023-03-26T04:40:20;99349.66;;;7.11;100.00
32789;BME280;19141;48.980;8.410;2023-03-26T04:42:58;99346.69;;;7.06;100.00
32789;BME280;19141;48.980;8.410;2023-03-26T04:45:59;99345.69;;;7.07;100.00
32789;BME280;19141;48.980;8.410;2023-03-26T04:48:28;99339.22;;;7.10;100.00
32789;BME280;19141;48.980;8.410;2023-03-26T04:50:55;99340.03;;;7.10;100.00
32789;BME280;19141;48.980;8.410;2023-03-26T04:53:21;99330.75;;;7.14;100.00
32789;BME280;19141;48.980;8.410;2023-03-26T04:59:17;99316.53;;;7.15;100.00
32789;BME280;19141;48.980;8.410;2023-03-26T05:01:43;99314.19;;;7.20;100.00
32789;BME280;19141;48.980;8.410;2023-03-26T05:04:12;99311.16;;;7.23;100.00
32789;BME280;19141;48.980;8.410;2023-03-26T05:06:39;99295.47;;;7.22;100.00
32789;BME280;19141;48.980;8.410;2023-03-26T05:09:14;99283.44;;;7.11;100.00
32789;BME280;19141;48.980;8.410;2023-03-26T05:11:58;99284.56;;;7.17;100.00
32789;BME280;19141;48.980;8.410;2023-03-26T05:14:24;99290.41;;;7.12;100.00
32789;BME280;19141;48.980;8.410;2023-03-26T05:16:50;99280.56;;;7.21;100.00
32789;BME280;19141;48.980;8.410;2023-03-26T05:19:18;99280.56;;;7.21;100.00
32789;BME280;19141;48.980;8.410;2023-03-26T05:21:43;99275.41;;;7.27;100.00
32789;BME280;19141;48.980;8.410;2023-03-26T05:24:10;99264.81;;;7.27;100.00
32789;BME280;19141;48.980;8.410;2023-03-26T05:26:35;99270.28;;;7.26;100.00
32789;BME280;19141;48.980;8.410;2023-03-26T05:29:03;99262.16;;;7.27;100.00
32789;BME280;19141;48.980;8.410;2023-03-26T05:31:34;99253.75;;;7.24;100.00
32789;BME280;19141;48.980;8.410;2023-03-26T05:34:01;99235.31;;;7.30;100.00
32789;BME280;19141;48.980;8.410;2023-03-26T05:36:27;99226.38;;;7.31;100.00
32789;BME280;19141;48.980;8.410;2023-03-26T05:39:03;99218.06;;;7.34;100.00
32789;BME280;19141;48.980;8.410;2023-03-26T05:42:04;99205.28;;;7.38;100.00
32789;BME280;19141;48.980;8.410;2023-03-26T05:44:44;99208.22;;;7.43;100.00
32789;BME280;19141;48.980;8.410;2023-03-26T05:47:17;99208.06;;;7.45;100.00
32789;BME280;19141;48.980;8.410;2023-03-26T05:49:43;99206.22;;;7.45;100.00
32789;BME280;19141;48.980;8.410;2023-03-26T05:52:08;99198.38;;;7.52;100.00
32789;BME280;19141;48.980;8.410;2023-03-26T05:55:03;99191.06;;;7.54;100.00
32789;BME280;19141;48.980;8.410;2023-03-26T05:57:47;99182.94;;;7.55;100.00
32789;BME280;19141;48.980;8.410;2023-03-26T06:00:33;99177.81;;;7.54;100.00
32789;BME280;19141;48.980;8.410;2023-03-26T06:02:59;99176.19;;;7.53;100.00
32789;BME280;19141;48.980;8.410;2023-03-26T06:05:43;99180.47;;;7.54;100.00
32789;BME280;19141;48.980;8.410;2023-03-26T06:08:14;99174.63;;;7.58;100.00
32789;BME280;19141;48.980;8.410;2023-03-26T06:10:47;99167.31;;;7.60;100.00
32789;BME280;19141;48.980;8.410;2023-03-26T06:13:15;99163.13;;;7.66;100.00
32789;BME280;19141;48.980;8.410;2023-03-26T06:15:42;99165.78;;;7.66;100.00
32789;BME280;19141;48.980;8.410;2023-03-26T06:18:34;99164.25;;;7.72;100.00
32789;BME280;19141;48.980;8.410;2023-03-26T06:21:24;99154.91;;;7.76;100.00
32789;BME280;19141;48.980;8.410;2023-03-26T06:23:55;99151.91;;;7.79;100.00
32789;BME280;19141;48.980;8.410;2023-03-26T06:26:38;99156.38;;;7.78;100.00
32789;BME280;19141;48.980;8.410;2023-03-26T06:29:18;99156.81;;;7.82;100.00
32789;BME280;19141;48.980;8.410;2023-03-26T06:32:03;99143.22;;;7.85;100.00
32789;BME280;19141;48.980;8.410;2023-03-26T06:34:39;99138.56;;;7.87;100.00
32789;BME280;19141;48.980;8.410;2023-03-26T06:37:06;99136.56;;;7.89;100.00
32789;BME280;19141;48.980;8.410;2023-03-26T06:39:31;99139.03;;;7.91;100.00
32789;BME280;19141;48.980;8.410;2023-03-26T06:42:10;99151.38;;;7.98;100.00
32789;BME280;19141;48.980;8.410;2023-03-26T06:44:45;99158.94;;;8.01;100.00
32789;BME280;19141;48.980;8.410;2023-03-26T06:47:34;99152.75;;;8.09;100.00
32789;BME280;19141;48.980;8.410;2023-03-26T06:50:33;99150.25;;;8.07;100.00
32789;BME280;19141;48.980;8.410;2023-03-26T06:53:21;99144.41;;;8.12;100.00
32789;BME280;19141;48.980;8.410;2023-03-26T06:55:55;99136.34;;;8.20;100.00
32789;BME280;19141;48.980;8.410;2023-03-26T06:58:52;99139.16;;;8.33;100.00
32789;BME280;19141;48.980;8.410;2023-03-26T07:01:53;99130.97;;;8.28;100.00
32789;BME280;19141;48.980;8.410;2023-03-26T07:04:37;99122.81;;;8.30;100.00
32789;BME280;19141;48.980;8.410;2023-03-26T07:07:21;99118.03;;;8.25;100.00
32789;BME280;19141;48.980;8.410;2023-03-26T07:10:07;99131.41;;;8.17;100.00
32789;BME280;19141;48.980;8.410;2023-03-26T07:12:54;99128.78;;;8.17;100.00
32789;BME280;19141;48.980;8.410;2023-03-26T07:15:47;99126.66;;;8.12;100.00
32789;BME280;19141;48.980;8.410;2023-03-26T07:18:28;99124.19;;;8.11;100.00
32789;BME280;19141;48.980;8.410;2023-03-26T07:20:54;99126.66;;;8.12;100.00
32789;BME280;19141;48.980;8.410;2023-03-26T07:23:21;99124.81;;;8.13;100.00
32789;BME280;19141;48.980;8.410;2023-03-26T07:26:25;99105.44;;;8.12;100.00
32789;BME280;19141;48.980;8.410;2023-03-26T07:29:25;99103.78;;;8.11;100.00
32789;BME280;19141;48.980;8.410;2023-03-26T07:32:49;99102.50;;;8.07;100.00
32789;BME280;19141;48.980;8.410;2023-03-26T07:35:51;99080.84;;;8.04;100.00
32789;BME280;19141;48.980;8.410;2023-03-26T07:39:21;99066.94;;;8.02;100.00
32789;BME280;19141;48.980;8.410;2023-03-26T07:45:32;99059.06;;;8.08;100.00
32789;BME280;19141;48.980;8.410;2023-03-26T07:48:25;99041.34;;;8.09;100.00
32789;BME280;19141;48.980;8.410;2023-03-26T07:51:04;99028.09;;;7.94;100.00
32789;BME280;19141;48.980;8.410;2023-03-26T07:53:50;99058.22;;;8.23;100.00
32789;BME280;19141;48.980;8.410;2023-03-26T07:56:44;99041.84;;;8.19;100.00
32789;BME280;19141;48.980;8.410;2023-03-26T07:59:33;99043.41;;;8.13;100.00
32789;BME280;19141;48.980;8.410;2023-03-26T08:02:36;99048.28;;;8.10;100.00
32789;BME280;19141;48.980;8.410;2023-03-26T08:09:01;99044.97;;;8.08;100.00
32789;BME280;19141;48.980;8.410;2023-03-26T08:11:56;99060.53;;;8.11;100.00
32789;BME280;19141;48.980;8.410;2023-03-26T08:14:48;99057.06;;;8.10;100.00
32789;BME280;19141;48.980;8.410;2023-03-26T08:17:22;99051.97;;;8.09;100.00
32789;BME280;19141;48.980;8.410;2023-03-26T08:20:26;99063.19;;;8.11;100.00
32789;BME280;19141;48.980;8.410;2023-03-26T08:22:54;99059.25;;;8.07;100.00
32789;BME280;19141;48.980;8.410;2023-03-26T08:25:30;99051.22;;;8.15;100.00
32789;BME280;19141;48.980;8.410;2023-03-26T08:30:36;99025.59;;;8.07;100.00
32789;BME280;19141;48.980;8.410;2023-03-26T08:33:12;99047.72;;;8.14;100.00
32789;BME280;19141;48.980;8.410;2023-03-26T08:35:41;99039.75;;;8.29;100.00
32789;BME280;19141;48.980;8.410;2023-03-26T08:38:11;99038.44;;;8.40;100.00
32789;BME280;19141;48.980;8.410;2023-03-26T08:52:27;99021.28;;;9.07;100.00
32789;BME280;19141;48.980;8.410;2023-03-26T09:01:12;99037.00;;;9.36;100.00
32789;BME280;19141;48.980;8.410;2023-03-26T09:04:08;99021.34;;;9.48;100.00
32789;BME280;19141;48.980;8.410;2023-03-26T09:19:28;99009.94;;;10.02;100.00
32789;BME280;19141;48.980;8.410;2023-03-26T09:22:01;98999.06;;;10.03;100.00
32789;BME280;19141;48.980;8.410;2023-03-26T09:27:39;99007.88;;;10.85;100.00
32789;BME280;19141;48.980;8.410;2023-03-26T09:38:30;98990.47;;;12.57;100.00
32789;BME280;19141;48.980;8.410;2023-03-26T09:44:07;98983.13;;;13.27;100.00
32789;BME280;19141;48.980;8.410;2023-03-26T09:49:41;98981.13;;;13.59;89.51
32789;BME280;19141;48.980;8.410;2023-03-26T09:52:32;98976.84;;;13.58;87.77
32789;BME280;19141;48.980;8.410;2023-03-26T09:55:12;98969.94;;;13.50;89.96
32789;BME280;19141;48.980;8.410;2023-03-26T09:57:52;98973.53;;;13.56;88.28
32789;BME280;19141;48.980;8.410;2023-03-26T10:11:20;98960.84;;;14.60;71.41
32789;BME280;19141;48.980;8.410;2023-03-26T10:14:03;98960.31;;;14.81;67.55
32789;BME280;19141;48.980;8.410;2023-03-26T10:16:48;98963.44;;;15.25;67.41
32789;BME280;19141;48.980;8.410;2023-03-26T10:19:30;98966.25;;;15.30;61.96
32789;BME280;19141;48.980;8.410;2023-03-26T10:22:30;98961.44;;;15.44;60.36
32789;BME280;19141;48.980;8.410;2023-03-26T10:25:16;98959.22;;;15.64;59.43
32789;BME280;19141;48.980;8.410;2023-03-26T10:33:27;98976.41;;;16.32;54.94
32789;BME280;19141;48.980;8.410;2023-03-26T10:38:57;98954.75;;;17.23;49.83
32789;BME280;19141;48.980;8.410;2023-03-26T10:41:38;98961.44;;;17.59;47.17
32789;BME280;19141;48.980;8.410;2023-03-26T10:52:48;98945.94;;;18.69;43.53
32789;BME280;19141;48.980;8.410;2023-03-26T10:55:20;98941.00;;;18.93;40.72
32789;BME280;19141;48.980;8.410;2023-03-26T10:57:55;98951.31;;;19.43;42.19
32789;BME280;19141;48.980;8.410;2023-03-26T11:00:24;98953.13;;;19.85;40.65
32789;BME280;19141;48.980;8.410;2023-03-26T11:05:23;98971.81;;;19.97;39.25
32789;BME280;19141;48.980;8.410;2023-03-26T11:10:24;98947.66;;;19.17;37.63
32789;BME280;19141;48.980;8.410;2023-03-26T11:18:51;98949.06;;;19.77;37.74
32789;BME280;19141;48.980;8.410;2023-03-26T11:21:25;98978.19;;;19.28;38.75
32789;BME280;19141;48.980;8.410;2023-03-26T11:26:53;98964.50;;;18.65;38.50
32789;BME280;19141;48.980;8.410;2023-03-26T11:30:00;98980.75;;;19.45;39.12
32789;BME280;19141;48.980;8.410;2023-03-26T11:32:38;98979.53;;;19.63;39.20
32789;BME280;19141;48.980;8.410;2023-03-26T11:37:43;98968.72;;;20.56;36.96
32789;BME280;19141;48.980;8.410;2023-03-26T11:40:24;98963.44;;;19.98;36.56
32789;BME280;19141;48.980;8.410;2023-03-26T11:42:57;98973.03;;;20.47;36.70
32789;BME280;19141;48.980;8.410;2023-03-26T11:45:25;98952.47;;;20.36;36.62
32789;BME280;19141;48.980;8.410;2023-03-26T11:48:09;98949.50;;;20.98;35.83
32789;BME280;19141;48.980;8.410;2023-03-26T11:50:44;98965.19;;;21.17;36.39
32789;BME280;19141;48.980;8.410;2023-03-26T11:53:14;98953.66;;;21.76;34.96
32789;BME280;19141;48.980;8.410;2023-03-26T11:59:00;98964.38;;;21.11;34.72
32789;BME280;19141;48.980;8.410;2023-03-26T12:01:50;98957.03;;;21.47;34.14
32789;BME280;19141;48.980;8.410;2023-03-26T12:04:19;98960.44;;;21.78;32.91
32789;BME280;19141;48.980;8.410;2023-03-26T12:06:55;98950.84;;;21.26;33.67
32789;BME280;19141;48.980;8.410;2023-03-26T12:09:22;98950.94;;;21.81;34.04
32789;BME280;19141;48.980;8.410;2023-03-26T12:11:52;98956.97;;;22.22;35.42
32789;BME280;19141;48.980;8.410;2023-03-26T12:14:23;98942.97;;;21.35;32.97
32789;BME280;19141;48.980;8.410;2023-03-26T12:17:10;98950.81;;;21.36;33.37
32789;BME280;19141;48.980;8.410;2023-03-26T12:19:41;98936.78;;;20.53;34.15
32789;BME280;19141;48.980;8.410;2023-03-26T12:25:12;98924.34;;;20.93;34.77
32789;BME280;19141;48.980;8.410;2023-03-26T12:27:48;98926.25;;;20.51;35.08
32789;BME280;19141;48.980;8.410;2023-03-26T12:30:25;98913.53;;;20.47;35.56
32789;BME280;19141;48.980;8.410;2023-03-26T12:32:52;98904.16;;;21.65;35.17
32789;BME280;19141;48.980;8.410;2023-03-26T12:35:25;98913.25;;;21.84;33.42
32789;BME280;19141;48.980;8.410;2023-03-26T12:37:53;98919.00;;;21.73;32.70
32789;BME280;19141;48.980;8.410;2023-03-26T12:40:25;98899.44;;;20.29;32.40
32789;BME280;19141;48.980;8.410;2023-03-26T12:43:03;98908.69;;;19.03;33.56
32789;BME280;19141;48.980;8.410;2023-03-26T12:47:55;98901.16;;;18.09;36.74
32789;BME280;19141;48.980;8.410;2023-03-26T12:50:28;98908.13;;;18.05;38.00
32789;BME280;19141;48.980;8.410;2023-03-26T12:56:00;98887.34;;;18.27;37.91
32789;BME280;19141;48.980;8.410;2023-03-26T12:58:42;98886.13;;;19.19;37.90
32789;BME280;19141;48.980;8.410;2023-03-26T13:04:07;98899.03;;;19.65;36.65
32789;BME280;19141;48.980;8.410;2023-03-26T13:06:48;98898.34;;;19.37;37.60
32789;BME280;19141;48.980;8.410;2023-03-26T13:09:23;98893.59;;;19.07;35.24
32789;BME280;19141;48.980;8.410;2023-03-26T13:14:47;98881.88;;;18.22;37.64
32789;BME280;19141;48.980;8.410;2023-03-26T13:17:20;98892.44;;;17.53;38.35
32789;BME280;19141;48.980;8.410;2023-03-26T13:20:07;98874.00;;;17.67;38.75
32789;BME280;19141;48.980;8.410;2023-03-26T13:25:50;98882.53;;;16.76;39.25
32789;BME280;19141;48.980;8.410;2023-03-26T13:28:50;98872.97;;;16.18;38.82
32789;BME280;19141;48.980;8.410;2023-03-26T13:37:13;98888.69;;;15.81;41.41
32789;BME280;19141;48.980;8.410;2023-03-26T13:48:04;98893.19;;;15.52;41.56
32789;BME280;19141;48.980;8.410;2023-03-26T13:50:38;98902.25;;;15.10;41.38
32789;BME280;19141;48.980;8.410;2023-03-26T13:53:23;98911.34;;;14.51;42.86
32789;BME280;19141;48.980;8.410;2023-03-26T13:55:53;98922.56;;;14.29;45.21
32789;BME280;19141;48.980;8.410;2023-03-26T14:01:05;98941.94;;;13.83;49.53
32789;BME280;19141;48.980;8.410;2023-03-26T14:09:18;98987.63;;;12.52;71.68
32789;BME280;19141;48.980;8.410;2023-03-26T14:16:56;99009.06;;;11.29;79.07
32789;BME280;19141;48.980;8.410;2023-03-26T14:27:59;99051.22;;;9.85;98.02
32789;BME280;19141;48.980;8.410;2023-03-26T14:30:53;99046.88;;;9.42;100.00
32789;BME280;19141;48.980;8.410;2023-03-26T14:53:33;99023.59;;;8.46;100.00
32789;BME280;19141;48.980;8.410;2023-03-26T14:56:21;99026.44;;;8.44;100.00
32789;BME280;19141;48.980;8.410;2023-03-26T15:07:22;99008.00;;;8.21;100.00
32789;BME280;19141;48.980;8.410;2023-03-26T15:10:10;99003.97;;;8.25;100.00
32789;BME280;19141;48.980;8.410;2023-03-26T15:12:59;98994.09;;;8.19;100.00
32789;BME280;19141;48.980;8.410;2023-03-26T15:29:22;98991.25;;;8.21;100.00
32789;BME280;19141;48.980;8.410;2023-03-26T15:40:13;99000.56;;;8.10;100.00
32789;BME280;19141;48.980;8.410;2023-03-26T15:42:58;99000.34;;;8.11;100.00
32789;BME280;19141;48.980;8.410;2023-03-26T15:45:32;99005.34;;;8.21;100.00
32789;BME280;19141;48.980;8.410;2023-03-26T15:53:52;98993.41;;;8.10;100.00
32789;BME280;19141;48.980;8.410;2023-03-26T15:56:28;98992.53;;;8.25;100.00
32789;BME280;19141;48.980;8.410;2023-03-26T16:04:27;99002.59;;;8.29;100.00
32789;BME280;19141;48.980;8.410;2023-03-26T16:07:05;99007.81;;;8.37;100.00
32789;BME280;19141;48.980;8.410;2023-03-26T16:12:25;99027.66;;;8.27;100.00
32789;BME280;19141;48.980;8.410;2023-03-26T16:23:49;99035.69;;;8.33;100.00
32789;BME280;19141;48.980;8.410;2023-03-26T16:34:44;99059.41;;;8.20;100.00
32789;BME280;19141;48.980;8.410;2023-03-26T16:45:33;99055.81;;;8.28;100.00
32789;BME280;19141;48.980;8.410;2023-03-26T16:48:20;99059.06;;;8.23;100.00
32789;BME280;19141;48.980;8.410;2023-03-26T16:56:40;99066.19;;;8.37;100.00
32789;BME280;19141;48.980;8.410;2023-03-26T17:02:02;99068.09;;;8.29;100.00
32789;BME280;19141;48.980;8.410;2023-03-26T17:04:31;99051.91;;;8.24;100.00
32789;BME280;19141;48.980;8.410;2023-03-26T17:07:06;99063.34;;;8.24;100.00
32789;BME280;19141;48.980;8.410;2023-03-26T17:10:18;99068.72;;;8.31;100.00
32789;BME280;19141;48.980;8.410;2023-03-26T17:13:02;99063.53;;;8.23;100.00
32789;BME280;19141;48.980;8.410;2023-03-26T17:15:42;99064.78;;;8.27;100.00
32789;BME280;19141;48.980;8.410;2023-03-26T17:18:44;99061.06;;;8.21;100.00
32789;BME280;19141;48.980;8.410;2023-03-26T17:21:17;99071.03;;;8.19;100.00
32789;BME280;19141;48.980;8.410;2023-03-26T17:26:37;99067.56;;;8.19;100.00
32789;BME280;19141;48.980;8.410;2023-03-26T17:31:59;99060.06;;;8.22;100.00
32789;BME280;19141;48.980;8.410;2023-03-26T17:34:40;99063.06;;;8.19;100.00
32789;BME280;19141;48.980;8.410;2023-03-26T17:42:25;99060.28;;;8.06;100.00
32789;BME280;19141;48.980;8.410;2023-03-26T17:45:19;99065.97;;;8.03;100.00
32789;BME280;19141;48.980;8.410;2023-03-26T17:47:54;99068.69;;;7.95;100.00
32789;BME280;19141;48.980;8.410;2023-03-26T17:50:31;99059.41;;;7.84;100.00
32789;BME280;19141;48.980;8.410;2023-03-26T17:53:04;99056.75;;;7.84;100.00
32789;BME280;19141;48.980;8.410;2023-03-26T17:55:36;99056.75;;;7.84;100.00
32789;BME280;19141;48.980;8.410;2023-03-26T17:58:05;99061.38;;;7.82;100.00
32789;BME280;19141;48.980;8.410;2023-03-26T18:00:35;99060.47;;;7.75;100.00
32789;BME280;19141;48.980;8.410;2023-03-26T18:03:25;99067.88;;;7.79;100.00
32789;BME280;19141;48.980;8.410;2023-03-26T18:05:58;99064.13;;;7.74;100.00
32789;BME280;19141;48.980;8.410;2023-03-26T18:14:23;99071.34;;;7.80;100.00
32789;BME280;19141;48.980;8.410;2023-03-26T18:16:59;99075.22;;;7.77;100.00
32789;BME280;19141;48.980;8.410;2023-03-26T18:19:25;99076.38;;;7.75;100.00
32789;BME280;19141;48.980;8.410;2023-03-26T18:21:53;99069.09;;;7.77;100.00
32789;BME280;19141;48.980;8.410;2023-03-26T18:24:24;99069.09;;;7.77;100.00
32789;BME280;19141;48.980;8.410;2023-03-26T18:27:02;99066.69;;;7.67;100.00
32789;BME280;19141;48.980;8.410;2023-03-26T18:29:31;99061.50;;;7.59;100.00
32789;BME280;19141;48.980;8.410;2023-03-26T18:32:02;99072.09;;;7.59;100.00
32789;BME280;19141;48.980;8.410;2023-03-26T18:34:34;99072.09;;;7.59;100.00
32789;BME280;19141;48.980;8.410;2023-03-26T18:42:57;99083.13;;;7.48;100.00
32789;BME280;19141;48.980;8.410;2023-03-26T18:45:27;99093.28;;;7.44;100.00
32789;BME280;19141;48.980;8.410;2023-03-26T18:47:59;99095.13;;;7.44;100.00
32789;BME280;19141;48.980;8.410;2023-03-26T18:50:27;99095.38;;;7.34;100.00
32789;BME280;19141;48.980;8.410;2023-03-26T18:52:57;99096.19;;;7.34;100.00
32789;BME280;19141;48.980;8.410;2023-03-26T18:55:28;99082.22;;;7.26;100.00
32789;BME280;19141;48.980;8.410;2023-03-26T18:57:55;99081.00;;;7.28;100.00
32789;BME280;19141;48.980;8.410;2023-03-26T19:00:23;99082.84;;;7.28;100.00
32789;BME280;19141;48.980;8.410;2023-03-26T19:02:56;99069.19;;;7.01;100.00
32789;BME280;19141;48.980;8.410;2023-03-26T19:05:24;99068.66;;;7.06;100.00
32789;BME280;19141;48.980;8.410;2023-03-26T19:07:52;99073.28;;;7.04;100.00
32789;BME280;19141;48.980;8.410;2023-03-26T19:10:19;99067.53;;;7.00;100.00
32789;BME280;19141;48.980;8.410;2023-03-26T19:12:56;99070.19;;;7.00;100.00
32789;BME280;19141;48.980;8.410;2023-03-26T19:15:23;99061.75;;;6.97;100.00
32789;BME280;19141;48.980;8.410;2023-03-26T19:17:53;99068.34;;;7.01;100.00
32789;BME280;19141;48.980;8.410;2023-03-26T19:20:27;99062.53;;;7.05;100.00
32789;BME280;19141;48.980;8.410;2023-03-26T19:22:53;99068.47;;;7.07;100.00
32789;BME280;19141;48.980;8.410;2023-03-26T19:25:39;99064.69;;;7.02;100.00
32789;BME280;19141;48.980;8.410;2023-03-26T19:28:14;99061.59;;;6.98;100.00
32789;BME280;19141;48.980;8.410;2023-03-26T19:30:41;99063.78;;;6.95;100.00
32789;BME280;19141;48.980;8.410;2023-03-26T19:33:16;99059.78;;;6.99;100.00
32789;BME280;19141;48.980;8.410;2023-03-26T19:35:44;99040.38;;;6.84;100.00
32789;BME280;19141;48.980;8.410;2023-03-26T19:38:24;99048.78;;;6.87;100.00
32789;BME280;19141;48.980;8.410;2023-03-26T19:40:53;99033.09;;;6.86;100.00
32789;BME280;19141;48.980;8.410;2023-03-26T19:43:20;99034.44;;;6.82;100.00
32789;BME280;19141;48.980;8.410;2023-03-26T19:45:48;99023.66;;;6.83;100.00
32789;BME280;19141;48.980;8.410;2023-03-26T19:48:18;99018.81;;;6.72;100.00
32789;BME280;19141;48.980;8.410;2023-03-26T19:50:59;99022.66;;;6.84;100.00
32789;BME280;19141;48.980;8.410;2023-03-26T19:53:35;99014.59;;;6.77;100.00
32789;BME280;19141;48.980;8.410;2023-03-26T19:58:32;99007.69;;;6.76;100.00
32789;BME280;19141;48.980;8.410;2023-03-26T20:00:59;99006.66;;;6.77;100.00
32789;BME280;19141;48.980;8.410;2023-03-26T20:03:45;99010.28;;;6.85;100.00
32789;BME280;19141;48.980;8.410;2023-03-26T20:06:16;99013.75;;;6.85;100.00
32789;BME280;19141;48.980;8.410;2023-03-26T20:08:42;99012.53;;;6.88;100.00
32789;BME280;19141;48.980;8.410;2023-03-26T20:11:34;99016.13;;;6.95;100.00
32789;BME280;19141;48.980;8.410;2023-03-26T20:14:10;99024.34;;;7.00;100.00
32789;BME280;19141;48.980;8.410;2023-03-26T20:16:37;99018.59;;;6.96;100.00
32789;BME280;19141;48.980;8.410;2023-03-26T20:19:02;99012.84;;;6.93;100.00
32789;BME280;19141;48.980;8.410;2023-03-26T20:21:29;99018.69;;;7.03;100.00
32789;BME280;19141;48.980;8.410;2023-03-26T20:23:56;99023.34;;;7.01;100.00
32789;BME280;19141;48.980;8.410;2023-03-26T20:26:22;99022.63;;;7.07;100.00
32789;BME280;19141;48.980;8.410;2023-03-26T20:28:48;99027.56;;;7.10;100.00
32789;BME280;19141;48.980;8.410;2023-03-26T20:31:16;99020.91;;;7.14;100.00
32789;BME280;19141;48.980;8.410;2023-03-26T20:33:44;99022.34;;;7.17;100.00
32789;BME280;19141;48.980;8.410;2023-03-26T20:36:12;99030.50;;;7.15;100.00
32789;BME280;19141;48.980;8.410;2023-03-26T20:38:42;99027.56;;;7.10;100.00
32789;BME280;19141;48.980;8.410;2023-03-26T20:41:13;99033.50;;;7.12;100.00
32789;BME280;19141;48.980;8.410;2023-03-26T20:43:39;99030.03;;;7.12;100.00
32789;BME280;19141;48.980;8.410;2023-03-26T20:46:11;99033.03;;;7.08;100.00
32789;BME280;19141;48.980;8.410;2023-03-26T20:48:38;99034.88;;;7.08;100.00
32789;BME280;19141;48.980;8.410;2023-03-26T20:51:03;99032.28;;;7.00;100.00
32789;BME280;19141;48.980;8.410;2023-03-26T20:53:29;99035.25;;;7.05;100.00
32789;BME280;19141;48.980;8.410;2023-03-26T20:55:54;99031.00;;;6.96;100.00
32789;BME280;19141;48.980;8.410;2023-03-26T20:58:20;99033.41;;;7.05;100.00
32789;BME280;19141;48.980;8.410;2023-03-26T21:00:47;99035.13;;;6.98;100.00
32789;BME280;19141;48.980;8.410;2023-03-26T21:03:14;99040.25;;;7.00;100.00
32789;BME280;19141;48.980;8.410;2023-03-26T21:05:41;99045.97;;;7.03;100.00
32789;BME280;19141;48.980;8.410;2023-03-26T21:08:16;99053.78;;;7.05;100.00
32789;BME280;19141;48.980;8.410;2023-03-26T21:10:43;99051.13;;;7.05;100.00
32789;BME280;19141;48.980;8.410;2023-03-26T21:13:29;99059.06;;;7.05;100.00
32789;BME280;19141;48.980;8.410;2023-03-26T21:16:01;99060.03;;;7.04;100.00
32789;BME280;19141;48.980;8.410;2023-03-26T21:18:26;99058.06;;;7.06;100.00
32789;BME280;19141;48.980;8.410;2023-03-26T21:21:24;99058.25;;;7.04;100.00
32789;BME280;19141;48.980;8.410;2023-03-26T21:24:04;99066.72;;;7.00;100.00
32789;BME280;19141;48.980;8.410;2023-03-26T21:26:41;99070.47;;;7.05;100.00
32789;BME280;19141;48.980;8.410;2023-03-26T21:29:09;99082.41;;;7.01;100.00
32789;BME280;19141;48.980;8.410;2023-03-26T21:31:36;99083.16;;;7.10;100.00
32789;BME280;19141;48.980;8.410;2023-03-26T21:34:02;99081.53;;;7.09;100.00
32789;BME280;19141;48.980;8.410;2023-03-26T21:36:30;99082.28;;;7.18;100.00
32789;BME280;19141;48.980;8.410;2023-03-26T21:38:56;99088.84;;;7.22;100.00
32789;BME280;19141;48.980;8.410;2023-03-26T21:43:48;99096.34;;;7.18;100.00
32789;BME280;19141;48.980;8.410;2023-03-26T21:46:14;99090.69;;;7.21;100.00
32789;BME280;19141;48.980;8.410;2023-03-26T21:48:40;99095.97;;;7.21;100.00
32789;BME280;19141;48.980;8.410;2023-03-26T21:51:06;99100.28;;;7.22;100.00
32789;BME280;19141;48.980;8.410;2023-03-26T21:53:33;99107.78;;;7.19;100.00
32789;BME280;19141;48.980;8.410;2023-03-26T21:58:44;99115.16;;;7.23;100.00
